createdAt,value
2022-08-17T00:04:24.042Z,100.00
2022-08-17T00:09:28.199Z,100.00
2022-08-17T00:14:32.154Z,100.00
2022-08-17T00:19:37.416Z,100.00
2022-08-17T00:24:41.087Z,100.00
2022-08-17T00:29:45.580Z,100.00
2022-08-17T00:34:50.859Z,100.00
2022-08-17T00:39:54.811Z,100.00
2022-08-17T00:44:58.925Z,100.00
2022-08-17T00:50:05.357Z,100.00
2022-08-17T00:55:10.412Z,100.00
2022-08-17T01:00:21.441Z,100.00
2022-08-17T01:05:30.907Z,100.00
2022-08-17T01:10:58.797Z,100.00
2022-08-17T01:16:13.052Z,100.00
2022-08-17T01:21:23.815Z,100.00
2022-08-17T01:26:30.967Z,100.00
2022-08-17T01:31:38.786Z,100.00
2022-08-17T01:36:46.015Z,100.00
2022-08-17T01:41:55.966Z,100.00
2022-08-17T01:46:59.915Z,100.00
2022-08-17T01:52:08.739Z,100.00
2022-08-17T01:57:14.226Z,100.00
2022-08-17T02:02:30.406Z,100.00
2022-08-17T02:07:58.642Z,100.00
2022-08-17T02:13:02.478Z,100.00
2022-08-17T02:18:07.472Z,100.00
2022-08-17T02:23:14.957Z,100.00
2022-08-17T02:28:21.062Z,100.00
2022-08-17T02:33:25.240Z,100.00
2022-08-17T02:38:47.862Z,100.00
2022-08-17T02:43:54.262Z,100.00
2022-08-17T02:48:58.103Z,100.00
2022-08-17T02:54:40.445Z,100.00
2022-08-17T02:59:26.778Z,100.00
2022-08-17T03:04:30.987Z,100.00
2022-08-17T03:09:38.780Z,100.00
2022-08-17T03:14:44.949Z,100.00
2022-08-17T03:19:48.649Z,100.00
2022-08-17T03:24:52.769Z,100.00
2022-08-17T03:29:58.602Z,100.00
2022-08-17T03:35:02.355Z,100.00
2022-08-17T03:40:08.807Z,100.00
2022-08-17T03:45:16.883Z,100.00
2022-08-17T03:50:38.419Z,100.00
2022-08-17T03:55:59.395Z,100.00
2022-08-17T04:01:04.888Z,100.00
2022-08-17T04:06:09.091Z,100.00
2022-08-17T04:11:12.802Z,100.00
2022-08-17T04:16:17.774Z,100.00
2022-08-17T04:21:22.267Z,100.00
2022-08-17T04:26:54.082Z,100.00
2022-08-17T04:31:50.941Z,100.00
2022-08-17T04:36:54.525Z,100.00
2022-08-17T04:42:17.297Z,100.00
2022-08-17T04:47:22.510Z,100.00
2022-08-17T04:52:32.218Z,100.00
2022-08-17T04:57:47.264Z,100.00
2022-08-17T05:02:53.324Z,100.00
2022-08-17T05:08:00.081Z,100.00
2022-08-17T05:13:05.705Z,100.00
2022-08-17T05:18:10.953Z,100.00
2022-08-17T05:23:17.103Z,100.00
2022-08-17T05:28:24.232Z,100.00
2022-08-17T05:33:35.470Z,100.00
2022-08-17T05:38:39.865Z,100.00
2022-08-17T05:43:43.863Z,100.00
2022-08-17T05:48:51.107Z,100.00
2022-08-17T05:54:01.839Z,100.00
2022-08-17T05:59:12.461Z,100.00
2022-08-17T06:04:27.951Z,100.00
2022-08-17T06:09:37.084Z,100.00
2022-08-17T06:14:58.924Z,100.00
2022-08-17T06:20:09.215Z,100.00
2022-08-17T06:25:16.801Z,100.00
2022-08-17T06:30:24.800Z,100.00
2022-08-17T06:35:35.696Z,100.00
2022-08-17T06:40:55.375Z,100.00
2022-08-17T06:46:04.636Z,100.00
2022-08-17T06:51:20.054Z,100.00
2022-08-17T06:56:54.800Z,100.00
2022-08-17T07:01:56.630Z,100.00
2022-08-17T07:07:25.171Z,100.00
2022-08-17T07:12:38.453Z,100.00
2022-08-17T07:17:47.209Z,100.00
2022-08-17T07:23:00.680Z,100.00
2022-08-17T07:28:07.821Z,100.00
2022-08-17T07:33:13.685Z,100.00
2022-08-17T07:38:24.731Z,100.00
2022-08-17T07:43:33.048Z,100.00
2022-08-17T07:48:39.830Z,100.00
2022-08-17T07:53:45.407Z,100.00
2022-08-17T07:58:49.229Z,100.00
2022-08-17T08:03:52.945Z,100.00
2022-08-17T08:09:00.600Z,100.00
2022-08-17T08:14:29.565Z,100.00
2022-08-17T08:19:35.506Z,100.00
2022-08-17T08:24:58.349Z,100.00
2022-08-17T08:30:07.776Z,100.00
2022-08-17T08:35:18.507Z,100.00
2022-08-17T08:40:36.352Z,100.00
2022-08-17T08:45:48.567Z,100.00
2022-08-17T08:51:01.161Z,100.00
2022-08-17T08:56:11.100Z,100.00
2022-08-17T09:01:22.080Z,100.00
2022-08-17T09:06:39.798Z,100.00
2022-08-17T09:12:01.423Z,100.00
2022-08-17T09:17:14.228Z,100.00
2022-08-17T09:22:34.937Z,100.00
2022-08-17T09:27:51.809Z,100.00
2022-08-17T09:32:59.973Z,100.00
2022-08-17T09:38:18.298Z,100.00
2022-08-17T09:43:31.759Z,100.00
2022-08-17T09:48:40.632Z,100.00
2022-08-17T09:53:44.949Z,100.00
2022-08-17T09:59:09.683Z,100.00
2022-08-17T10:04:30.680Z,100.00
2022-08-17T10:09:49.783Z,100.00
2022-08-17T10:15:14.704Z,100.00
2022-08-17T10:20:25.838Z,100.00
2022-08-17T10:25:55.122Z,100.00
2022-08-17T10:36:43.253Z,100.00
2022-08-17T10:41:53.090Z,100.00
2022-08-17T10:47:09.008Z,100.00
2022-08-17T10:52:46.002Z,100.00
2022-08-17T10:57:51.388Z,94.39
2022-08-17T11:02:57.984Z,86.33
2022-08-17T11:08:21.225Z,84.65
2022-08-17T11:13:35.536Z,82.31
2022-08-17T11:19:09.964Z,74.95
2022-08-17T11:24:23.216Z,73.30
2022-08-17T11:29:32.474Z,74.95
2022-08-17T11:34:44.669Z,78.67
2022-08-17T11:40:24.553Z,75.00
2022-08-17T11:45:46.550Z,72.81
2022-08-17T11:51:17.342Z,71.98
2022-08-17T11:56:34.182Z,65.98
2022-08-17T12:01:58.486Z,66.82
2022-08-17T12:07:11.516Z,62.57
2022-08-17T12:12:19.228Z,58.36
2022-08-17T12:17:40.658Z,59.96
2022-08-17T12:22:56.623Z,71.30
2022-08-17T12:28:06.540Z,74.27
2022-08-17T12:33:25.708Z,70.44
2022-08-17T12:38:36.261Z,60.74
2022-08-17T12:43:39.992Z,55.22
2022-08-17T12:48:59.157Z,51.91
2022-08-17T12:59:12.140Z,54.33
2022-08-17T13:04:17.539Z,51.03
2022-08-17T13:09:35.664Z,53.68
2022-08-17T13:14:47.781Z,59.78
2022-08-17T13:19:52.303Z,56.36
2022-08-17T13:24:58.520Z,54.40
2022-08-17T13:30:08.442Z,56.05
2022-08-17T13:35:39.266Z,47.55
2022-08-17T13:40:49.171Z,50.17
2022-08-17T13:45:54.531Z,49.17
2022-08-17T13:51:15.136Z,48.67
2022-08-17T13:56:44.764Z,49.88
2022-08-17T14:01:53.857Z,51.24
2022-08-17T14:07:29.823Z,48.47
2022-08-17T14:12:35.689Z,45.63
2022-08-17T14:17:40.861Z,46.30
2022-08-17T14:22:49.601Z,56.23
2022-08-17T14:27:58.321Z,49.82
2022-08-17T14:33:09.583Z,49.54
2022-08-17T14:38:15.168Z,56.13
2022-08-17T14:43:20.559Z,55.98
2022-08-17T14:48:38.357Z,53.99
2022-08-17T14:53:43.162Z,56.00
2022-08-17T14:58:54.525Z,55.73
2022-08-17T15:04:01.088Z,61.87
2022-08-17T15:09:04.939Z,67.25
2022-08-17T15:14:08.794Z,66.50
2022-08-17T15:19:14.502Z,60.12
2022-08-17T15:24:18.426Z,64.07
2022-08-17T15:29:22.698Z,62.21
2022-08-17T15:34:27.966Z,60.03
2022-08-17T15:39:31.699Z,63.37
2022-08-17T15:44:40.694Z,61.21
2022-08-17T15:49:46.823Z,57.70
2022-08-17T15:54:51.969Z,65.12
2022-08-17T15:59:58.659Z,68.70
2022-08-17T16:05:06.025Z,72.37
2022-08-17T16:10:18.697Z,74.97
2022-08-17T16:15:22.994Z,73.71
2022-08-17T16:20:30.669Z,68.17
2022-08-17T16:25:52.675Z,76.99
2022-08-17T16:30:58.600Z,87.90
2022-08-17T16:36:03.728Z,93.72
2022-08-17T16:41:08.230Z,94.69
2022-08-17T16:46:11.891Z,97.31
2022-08-17T16:51:17.022Z,91.51
2022-08-17T16:56:20.917Z,86.48
2022-08-17T17:01:26.530Z,86.48
2022-08-17T17:06:39.257Z,88.38
2022-08-17T17:11:45.910Z,90.43
2022-08-17T17:16:57.820Z,92.76
2022-08-17T17:22:09.856Z,95.72
2022-08-17T17:27:23.147Z,98.45
2022-08-17T17:32:32.260Z,99.07
2022-08-17T17:37:39.730Z,100.00
2022-08-17T17:42:45.521Z,100.00
2022-08-17T17:47:50.685Z,100.00
2022-08-17T17:53:03.159Z,95.71
2022-08-17T17:58:39.229Z,98.21
2022-08-17T18:04:33.220Z,96.49
2022-08-17T18:10:29.628Z,96.12
2022-08-17T18:16:09.198Z,96.70
2022-08-17T18:21:51.548Z,100.00
2022-08-17T18:27:44.349Z,100.00
2022-08-17T18:33:36.220Z,100.00
2022-08-17T18:39:26.287Z,100.00
2022-08-17T18:45:07.154Z,100.00
2022-08-17T18:50:53.403Z,100.00
2022-08-17T18:56:37.193Z,100.00
2022-08-17T19:02:45.168Z,100.00
2022-08-17T19:08:38.212Z,100.00
2022-08-17T19:14:20.161Z,100.00
2022-08-17T19:20:06.319Z,100.00
2022-08-17T19:25:46.179Z,100.00
2022-08-17T19:31:28.298Z,100.00
2022-08-17T19:36:54.396Z,100.00
2022-08-17T19:42:03.195Z,100.00
2022-08-17T19:47:30.743Z,100.00
2022-08-17T19:52:53.758Z,100.00
2022-08-17T19:58:06.076Z,100.00
2022-08-17T20:03:16.794Z,100.00
2022-08-17T20:08:28.944Z,100.00
2022-08-17T20:13:36.639Z,100.00
2022-08-17T20:18:50.751Z,100.00
2022-08-17T20:24:05.545Z,100.00
2022-08-17T20:29:40.118Z,100.00
2022-08-17T20:34:48.862Z,100.00
2022-08-17T20:40:26.372Z,100.00
2022-08-17T20:45:57.861Z,100.00
2022-08-17T20:51:16.438Z,100.00
2022-08-17T20:56:49.310Z,100.00
2022-08-17T21:02:18.542Z,100.00
2022-08-17T21:07:30.148Z,100.00
2022-08-17T21:12:44.319Z,100.00
2022-08-17T21:17:56.390Z,100.00
2022-08-17T21:23:19.042Z,100.00
2022-08-17T21:28:34.376Z,100.00
2022-08-17T21:33:39.687Z,100.00
2022-08-17T21:38:57.578Z,100.00
2022-08-17T21:44:14.114Z,100.00
2022-08-17T21:49:21.521Z,100.00
2022-08-17T21:54:31.987Z,100.00
2022-08-17T21:59:40.069Z,100.00
2022-08-17T22:04:44.836Z,100.00
2022-08-17T22:09:50.408Z,100.00
2022-08-17T22:15:00.459Z,100.00
2022-08-17T22:20:09.239Z,100.00
2022-08-17T22:25:22.408Z,100.00
2022-08-17T22:30:34.686Z,100.00
2022-08-17T22:35:41.445Z,100.00
2022-08-17T22:40:49.832Z,100.00
2022-08-17T22:46:00.473Z,100.00
2022-08-17T22:51:13.366Z,100.00
2022-08-17T22:56:37.874Z,100.00
2022-08-17T23:01:45.448Z,100.00
2022-08-17T23:06:49.095Z,100.00
2022-08-17T23:11:58.997Z,100.00
2022-08-17T23:17:04.469Z,100.00
2022-08-17T23:22:11.432Z,100.00
2022-08-17T23:27:15.202Z,100.00
2022-08-17T23:32:22.291Z,100.00
2022-08-17T23:37:27.689Z,100.00
2022-08-17T23:42:31.129Z,100.00
2022-08-17T23:47:36.196Z,100.00
2022-08-17T23:52:41.442Z,100.00
2022-08-17T23:57:45.054Z,100.00
